Time;durP1;ratioP1;P1;durP2;ratioP2;P2;SDS_P1;SDS_P2;PMS_P1;PMS_P2;Temp;Humidity;BMP_temperature;BMP_pressure;BME280_temperature;BME280_humidity;BME280_pressure;Samples;Min_cycle;Max_cycle;Signal;HPM_P1;HPM_P2
2022/11/21 00:00:05;;;;;;;28.33;14.27;;;1.70;99.90;;;;;;4920056;29;20040;-91
2022/11/21 00:02:31;;;;;;;26.25;12.95;;;1.70;99.90;;;;;;4947559;28;20048;-91
2022/11/21 00:04:57;;;;;;;26.88;13.45;;;1.80;99.90;;;;;;4948500;29;20167;-91
2022/11/21 00:07:22;;;;;;;27.02;13.07;;;1.80;99.90;;;;;;4934823;29;20091;-92
2022/11/21 00:09:48;;;;;;;24.70;14.07;;;1.70;99.90;;;;;;4948209;28;20042;-91
2022/11/21 00:12:15;;;;;;;22.42;12.20;;;1.80;99.90;;;;;;4929347;29;20044;-90
2022/11/21 00:14:40;;;;;;;24.67;13.55;;;1.70;99.90;;;;;;4948128;28;20043;-90
2022/11/21 00:17:06;;;;;;;24.17;13.45;;;1.80;99.90;;;;;;4929910;29;20043;-91
2022/11/21 00:19:32;;;;;;;27.45;13.85;;;1.80;99.90;;;;;;4908647;29;20079;-91
2022/11/21 00:21:58;;;;;;;25.58;14.57;;;1.80;99.90;;;;;;4915954;29;20016;-90
2022/11/21 00:24:23;;;;;;;29.35;14.98;;;1.80;99.90;;;;;;4943702;29;20110;-90
2022/11/21 00:26:49;;;;;;;25.83;13.65;;;1.80;99.90;;;;;;4939043;29;20059;-92
2022/11/21 00:29:14;;;;;;;26.48;15.15;;;1.80;99.90;;;;;;4927586;29;20048;-91
2022/11/21 00:31:40;;;;;;;25.05;14.60;;;1.80;99.90;;;;;;4922789;29;20048;-92
2022/11/21 00:34:06;;;;;;;24.77;14.40;;;1.80;99.90;;;;;;4925831;29;20075;-92
2022/11/21 00:36:31;;;;;;;26.70;14.52;;;1.80;99.90;;;;;;4928418;29;20051;-90
2022/11/21 00:38:57;;;;;;;25.95;14.20;;;1.70;99.90;;;;;;4910338;29;20476;-91
2022/11/21 00:41:22;;;;;;;23.30;12.63;;;1.70;99.90;;;;;;4931931;29;20028;-92
2022/11/21 00:43:48;;;;;;;24.33;12.80;;;1.70;99.90;;;;;;4908410;29;20043;-92
2022/11/21 00:46:13;;;;;;;26.67;13.55;;;1.70;99.90;;;;;;4904037;29;20095;-91
2022/11/21 00:48:39;;;;;;;25.83;13.90;;;1.60;99.90;;;;;;4926016;29;20569;-91
2022/11/21 00:51:05;;;;;;;22.95;12.55;;;1.60;99.90;;;;;;4925389;29;20040;-93
2022/11/21 00:53:30;;;;;;;23.55;12.23;;;1.60;99.90;;;;;;4913258;29;20496;-91
2022/11/21 00:55:56;;;;;;;24.80;12.35;;;1.60;99.90;;;;;;4919967;29;20042;-91
2022/11/21 00:58:22;;;;;;;26.50;13.30;;;1.60;99.90;;;;;;4900994;29;20044;-93
2022/11/21 01:00:47;;;;;;;23.30;12.65;;;1.60;99.90;;;;;;4905231;29;20059;-91
2022/11/21 01:03:13;;;;;;;25.73;13.95;;;1.50;99.90;;;;;;4921939;29;20066;-92
2022/11/21 01:05:39;;;;;;;24.08;12.52;;;1.60;99.90;;;;;;4915047;29;20075;-92
2022/11/21 01:08:05;;;;;;;26.10;13.10;;;1.60;99.90;;;;;;4913245;29;20050;-92
2022/11/21 01:10:30;;;;;;;23.10;12.60;;;1.50;99.90;;;;;;4930394;29;20579;-91
2022/11/21 01:12:56;;;;;;;25.85;13.50;;;1.50;99.90;;;;;;4925146;29;20127;-92
2022/11/21 01:15:22;;;;;;;25.65;14.20;;;1.50;99.90;;;;;;4931597;29;20079;-92
2022/11/21 01:17:47;;;;;;;25.13;13.98;;;1.50;99.90;;;;;;4912571;29;20212;-91
2022/11/21 01:20:14;;;;;;;24.77;13.65;;;1.50;99.90;;;;;;4928475;29;20453;-92
2022/11/21 01:22:39;;;;;;;24.23;14.25;;;1.50;99.90;;;;;;4926577;29;20055;-92
2022/11/21 01:25:05;;;;;;;27.08;15.07;;;1.50;99.90;;;;;;4908525;29;20059;-92
2022/11/21 01:27:31;;;;;;;27.83;14.55;;;1.50;99.90;;;;;;4905976;29;20075;-93
2022/11/21 01:29:56;;;;;;;24.95;13.93;;;1.50;99.90;;;;;;4919354;29;20072;-94
2022/11/21 01:32:22;;;;;;;26.88;14.77;;;1.60;99.90;;;;;;4924794;29;20122;-92
2022/11/21 01:34:47;;;;;;;24.83;13.57;;;1.60;99.90;;;;;;4915808;29;20471;-93
2022/11/21 01:37:13;;;;;;;28.50;15.07;;;1.50;99.90;;;;;;4913535;29;20091;-91
2022/11/21 01:39:38;;;;;;;26.70;15.40;;;1.50;99.90;;;;;;4902605;29;20040;-91
2022/11/21 01:42:04;;;;;;;27.98;14.70;;;1.60;99.90;;;;;;4906103;29;20066;-92
2022/11/21 01:44:52;;;;;;;27.08;14.05;;;1.50;99.90;;;;;;4911436;29;20168;-91
2022/11/21 01:47:18;;;;;;;24.33;12.75;;;1.50;99.90;;;;;;4914337;29;20040;-91
2022/11/21 01:49:45;;;;;;;23.73;12.90;;;1.50;99.90;;;;;;4925789;29;20098;-93
2022/11/21 01:52:20;;;;;;;24.50;14.07;;;1.50;99.90;;;;;;4926070;29;20051;-93
2022/11/21 01:54:55;;;;;;;26.58;14.70;;;1.50;99.90;;;;;;4923960;29;20051;-92
2022/11/21 01:57:39;;;;;;;25.40;14.10;;;1.60;99.90;;;;;;4926155;29;20052;-92
2022/11/21 02:00:11;;;;;;;26.20;14.05;;;1.60;99.90;;;;;;4906666;29;20040;-93
2022/11/21 02:02:41;;;;;;;27.75;14.13;;;1.60;99.90;;;;;;4912970;29;20036;-92
2022/11/21 02:05:11;;;;;;;27.25;15.07;;;1.60;99.90;;;;;;4923997;29;20095;-91
2022/11/21 02:07:40;;;;;;;30.15;15.68;;;1.60;99.90;;;;;;4927228;29;20130;-92
2022/11/21 02:10:07;;;;;;;26.42;13.98;;;1.60;99.90;;;;;;4912903;29;20048;-90
2022/11/21 02:12:49;;;;;;;27.70;13.80;;;1.60;99.90;;;;;;4910694;29;20044;-91
2022/11/21 02:15:16;;;;;;;24.70;14.02;;;1.60;99.90;;;;;;4921677;29;20563;-91
2022/11/21 02:17:42;;;;;;;24.73;14.10;;;1.70;99.90;;;;;;4923194;29;20035;-92
2022/11/21 02:20:14;;;;;;;27.08;14.77;;;1.60;99.90;;;;;;4907283;29;20544;-92
2022/11/21 02:23:04;;;;;;;23.60;13.52;;;1.60;99.90;;;;;;4911925;29;20389;-93
2022/11/21 02:25:34;;;;;;;28.20;14.63;;;1.60;99.90;;;;;;4926401;29;20063;-91
2022/11/21 02:28:03;;;;;;;26.75;14.68;;;1.60;99.90;;;;;;4911947;29;20040;-91
2022/11/21 02:30:35;;;;;;;24.13;14.00;;;1.50;99.90;;;;;;4927264;29;20036;-92
2022/11/21 02:33:00;;;;;;;25.27;14.20;;;1.50;99.90;;;;;;4935316;29;20480;-91
2022/11/21 02:35:26;;;;;;;25.80;15.10;;;1.40;99.90;;;;;;4914361;29;20079;-92
2022/11/21 02:38:15;;;;;;;25.33;13.43;;;1.40;99.90;;;;;;4930304;29;20048;-93
2022/11/21 02:40:47;;;;;;;26.10;13.75;;;1.20;99.90;;;;;;4908345;29;20044;-91
2022/11/21 02:43:24;;;;;;;25.35;13.45;;;1.20;99.90;;;;;;4923870;29;20044;-92
2022/11/21 02:45:50;;;;;;;25.33;14.13;;;1.00;99.90;;;;;;4904632;29;20437;-91
2022/11/21 02:48:15;;;;;;;25.05;12.73;;;1.00;99.90;;;;;;4913582;29;20035;-93
2022/11/21 02:50:43;;;;;;;24.92;13.13;;;0.90;99.90;;;;;;4924162;29;20079;-92
2022/11/21 02:53:12;;;;;;;27.13;14.32;;;0.90;99.90;;;;;;4924209;29;20043;-93
2022/11/21 02:55:37;;;;;;;23.88;14.30;;;0.80;99.90;;;;;;4926082;29;20039;-91
2022/11/21 02:58:04;;;;;;;24.50;13.02;;;0.70;99.90;;;;;;4924019;29;20466;-92
2022/11/21 03:00:29;;;;;;;23.58;13.57;;;0.60;99.90;;;;;;4947325;28;20036;-91
2022/11/21 03:02:55;;;;;;;23.80;11.93;;;0.60;99.90;;;;;;4944796;28;20036;-93
2022/11/21 03:05:21;;;;;;;22.65;11.80;;;0.60;99.90;;;;;;4944664;28;20520;-91
2022/11/21 03:07:47;;;;;;;26.58;13.90;;;0.50;99.90;;;;;;4909801;29;20047;-91
2022/11/21 03:10:14;;;;;;;23.08;12.25;;;0.50;99.90;;;;;;4950853;28;20043;-93
2022/11/21 03:12:41;;;;;;;23.58;12.65;;;0.40;99.90;;;;;;4922616;29;20052;-93
2022/11/21 03:15:10;;;;;;;23.52;12.35;;;0.40;99.90;;;;;;4928200;29;20416;-91
2022/11/21 03:17:36;;;;;;;22.90;11.43;;;0.30;99.90;;;;;;4920362;29;20036;-91
2022/11/21 03:20:02;;;;;;;24.40;12.50;;;0.30;99.90;;;;;;4907902;29;20096;-92
2022/11/21 03:22:28;;;;;;;25.33;13.00;;;0.30;99.90;;;;;;4912517;29;20042;-93
2022/11/21 03:24:53;;;;;;;23.40;12.30;;;0.20;99.90;;;;;;4928008;28;20411;-92
2022/11/21 03:27:19;;;;;;;23.00;11.85;;;0.20;99.90;;;;;;4935215;28;20047;-93
2022/11/21 03:29:44;;;;;;;24.60;11.88;;;0.20;99.90;;;;;;4941174;28;20030;-92
2022/11/21 03:32:10;;;;;;;23.70;12.43;;;0.10;99.90;;;;;;4953338;28;20122;-92
2022/11/21 03:34:36;;;;;;;25.58;12.52;;;0.10;99.90;;;;;;4936437;28;20054;-94
2022/11/21 03:37:02;;;;;;;23.23;11.63;;;0.00;99.90;;;;;;4950227;28;20070;-92
2022/11/21 03:39:31;;;;;;;23.30;11.85;;;0.00;99.90;;;;;;4949122;28;20042;-92
2022/11/21 03:41:57;;;;;;;25.77;12.23;;;0.00;99.90;;;;;;4932755;28;20523;-91
2022/11/21 03:44:22;;;;;;;25.00;13.07;;;-0.10;99.90;;;;;;4957198;28;20490;-92
2022/11/21 03:46:48;;;;;;;25.77;13.75;;;-0.10;99.90;;;;;;4927846;28;20045;-91
2022/11/21 03:49:15;;;;;;;27.02;13.25;;;-0.10;99.90;;;;;;4933686;28;20046;-92
2022/11/21 03:51:42;;;;;;;33.25;14.40;;;-0.20;99.90;;;;;;4964432;28;20043;-93
2022/11/21 03:54:08;;;;;;;25.45;12.85;;;-0.20;99.90;;;;;;4944027;28;20403;-91
2022/11/21 03:56:34;;;;;;;23.88;11.88;;;-0.20;99.90;;;;;;4938902;28;20082;-92
2022/11/21 03:58:59;;;;;;;24.17;11.57;;;-0.20;99.90;;;;;;4944410;28;20045;-91
2022/11/21 04:01:25;;;;;;;21.80;11.40;;;-0.20;99.90;;;;;;4960220;28;20039;-90
2022/11/21 04:03:51;;;;;;;21.40;11.18;;;-0.20;99.90;;;;;;4957054;28;20038;-90
2022/11/21 04:06:19;;;;;;;23.83;11.38;;;-0.20;99.90;;;;;;4952398;28;20057;-91
2022/11/21 04:08:45;;;;;;;21.92;11.68;;;-0.20;99.90;;;;;;4921679;29;20039;-91
2022/11/21 04:11:11;;;;;;;22.88;11.25;;;-0.20;99.90;;;;;;4930295;28;20121;-92
2022/11/21 04:13:37;;;;;;;25.00;12.05;;;-0.30;99.90;;;;;;4946602;28;20129;-90
2022/11/21 04:16:03;;;;;;;24.63;11.30;;;-0.30;99.90;;;;;;4929919;28;20045;-90
2022/11/21 04:18:29;;;;;;;28.90;14.48;;;-0.40;99.90;;;;;;4945128;28;20047;-92
2022/11/21 04:20:59;;;;;;;25.33;13.15;;;-0.40;99.90;;;;;;4935324;28;20034;-90
2022/11/21 04:23:25;;;;;;;24.20;13.23;;;-0.40;99.90;;;;;;4932251;28;20047;-92
2022/11/21 04:25:51;;;;;;;24.63;12.60;;;-0.40;99.90;;;;;;4926424;28;20487;-90
2022/11/21 04:28:16;;;;;;;28.48;13.35;;;-0.40;99.90;;;;;;4944651;28;20094;-90
2022/11/21 04:30:42;;;;;;;25.85;12.82;;;-0.40;99.90;;;;;;4947658;28;20031;-91
2022/11/21 04:33:08;;;;;;;28.30;11.73;;;-0.30;99.90;;;;;;4939561;28;20093;-91
2022/11/21 04:35:34;;;;;;;22.02;10.85;;;-0.30;99.90;;;;;;4947788;28;20051;-90
2022/11/21 04:37:59;;;;;;;22.38;11.48;;;-0.30;99.90;;;;;;4944006;28;20374;-91
2022/11/21 04:40:25;;;;;;;26.63;13.10;;;-0.30;99.90;;;;;;4944046;28;20050;-91
2022/11/21 04:42:51;;;;;;;23.67;11.88;;;-0.40;99.90;;;;;;4934951;28;20051;-90
2022/11/21 04:45:17;;;;;;;23.58;12.05;;;-0.40;99.90;;;;;;4924543;28;20126;-91
2022/11/21 04:47:44;;;;;;;24.38;11.57;;;-0.40;99.90;;;;;;4952135;28;20546;-93
2022/11/21 04:50:13;;;;;;;21.85;10.93;;;-0.50;99.90;;;;;;4940447;28;20093;-91
2022/11/21 04:52:38;;;;;;;25.20;12.55;;;-0.50;99.90;;;;;;4960763;28;20047;-91
2022/11/21 04:55:05;;;;;;;24.65;11.98;;;-0.50;99.90;;;;;;4938738;28;20061;-91
2022/11/21 04:57:31;;;;;;;23.35;12.77;;;-0.60;99.90;;;;;;4926171;28;20047;-91
2022/11/21 04:59:57;;;;;;;25.17;12.38;;;-0.60;99.90;;;;;;4946911;28;20456;-90
2022/11/21 05:02:23;;;;;;;25.15;12.70;;;-0.60;99.90;;;;;;4948811;28;20047;-91
2022/11/21 05:04:49;;;;;;;21.75;10.05;;;-0.60;99.90;;;;;;4945628;28;20101;-89
2022/11/21 05:07:15;;;;;;;23.60;11.50;;;-0.70;99.90;;;;;;4929923;28;20051;-90
2022/11/21 05:09:41;;;;;;;26.90;12.15;;;-0.70;99.90;;;;;;4960836;28;20173;-89
2022/11/21 05:14:53;;;;;;;22.58;12.55;;;-0.80;99.90;;;;;;4942512;28;20063;-89
2022/11/21 05:17:19;;;;;;;26.63;13.82;;;-0.80;99.90;;;;;;4938386;28;20031;-90
2022/11/21 05:19:44;;;;;;;23.48;12.02;;;-0.80;99.90;;;;;;4945858;28;20086;-89
2022/11/21 05:22:10;;;;;;;25.35;12.82;;;-0.80;99.90;;;;;;4945828;28;20513;-90
2022/11/21 05:24:35;;;;;;;22.02;11.80;;;-0.80;99.90;;;;;;4967886;28;20063;-89
2022/11/21 05:27:01;;;;;;;24.17;12.10;;;-0.80;99.90;;;;;;4952362;28;20452;-89
2022/11/21 05:29:27;;;;;;;24.00;11.90;;;-0.80;99.90;;;;;;4965914;28;20046;-89
2022/11/21 05:31:52;;;;;;;25.85;12.20;;;-0.80;99.90;;;;;;4942669;28;20047;-88
2022/11/21 05:34:18;;;;;;;25.38;11.38;;;-0.80;99.90;;;;;;4962206;28;20509;-89
2022/11/21 05:36:43;;;;;;;20.02;10.43;;;-0.70;99.90;;;;;;4951684;28;20035;-90
2022/11/21 05:39:09;;;;;;;23.77;12.07;;;-0.70;99.90;;;;;;4945522;28;20493;-89
2022/11/21 05:41:35;;;;;;;20.30;10.90;;;-0.70;99.90;;;;;;4925728;29;20039;-89
2022/11/21 05:44:00;;;;;;;20.42;10.10;;;-0.70;99.90;;;;;;4927608;28;20047;-88
2022/11/21 05:46:26;;;;;;;24.83;10.43;;;-0.70;99.90;;;;;;4947831;28;20425;-89
2022/11/21 05:48:53;;;;;;;21.30;10.15;;;-0.70;99.90;;;;;;4955406;28;20054;-90
2022/11/21 05:51:19;;;;;;;19.35;10.05;;;-0.70;99.90;;;;;;4944083;28;20046;-89
2022/11/21 05:53:46;;;;;;;25.42;12.38;;;-0.70;99.90;;;;;;4942696;28;20090;-87
2022/11/21 05:56:14;;;;;;;20.63;11.63;;;-0.80;99.90;;;;;;4944365;28;20043;-89
2022/11/21 05:58:40;;;;;;;23.77;11.88;;;-0.90;99.90;;;;;;4946735;28;20031;-88
2022/11/21 06:01:08;;;;;;;26.48;12.32;;;-0.90;99.90;;;;;;4946943;28;20042;-88
2022/11/21 06:03:36;;;;;;;23.80;11.35;;;-0.90;99.90;;;;;;4934301;28;20049;-87
2022/11/21 06:06:03;;;;;;;22.95;11.98;;;-0.90;99.90;;;;;;4932991;28;20051;-86
2022/11/21 06:08:31;;;;;;;28.45;12.80;;;-0.90;99.90;;;;;;4948205;28;20998;-87
2022/11/21 06:10:56;;;;;;;25.40;13.27;;;-0.90;99.90;;;;;;4947725;28;20035;-88
2022/11/21 06:13:22;;;;;;;29.10;15.00;;;-0.90;99.90;;;;;;4949192;28;20046;-88
2022/11/21 06:15:58;;;;;;;25.48;13.43;;;-0.80;99.90;;;;;;4957669;28;20042;-88
2022/11/21 06:18:25;;;;;;;25.67;12.75;;;-0.80;99.90;;;;;;4940937;28;20125;-87
2022/11/21 06:20:51;;;;;;;27.33;12.60;;;-0.80;99.90;;;;;;4949330;28;20051;-87
2022/11/21 06:23:16;;;;;;;28.05;13.98;;;-0.80;99.90;;;;;;4960757;28;20046;-88
2022/11/21 06:25:43;;;;;;;25.48;12.18;;;-0.80;99.90;;;;;;4965217;28;20055;-87
2022/11/21 06:28:09;;;;;;;26.92;13.50;;;-0.70;99.90;;;;;;4952310;28;20090;-88
2022/11/21 06:30:35;;;;;;;26.45;12.73;;;-0.70;99.90;;;;;;4949519;28;20047;-88
2022/11/21 06:33:05;;;;;;;23.70;12.77;;;-0.70;99.90;;;;;;4944832;28;20396;-87
2022/11/21 06:35:31;;;;;;;26.95;13.50;;;-0.80;99.90;;;;;;4943547;28;20058;-87
2022/11/21 06:37:57;;;;;;;27.38;12.55;;;-0.80;99.90;;;;;;4937328;28;20185;-87
2022/11/21 06:40:23;;;;;;;29.13;13.27;;;-0.80;99.90;;;;;;4951522;28;20126;-87
2022/11/21 06:42:49;;;;;;;25.05;12.50;;;-0.70;99.90;;;;;;4943836;28;20047;-87
2022/11/21 06:45:15;;;;;;;28.42;15.13;;;-0.70;99.90;;;;;;4962295;28;20506;-86
2022/11/21 06:47:41;;;;;;;28.95;13.20;;;-0.70;99.90;;;;;;4944772;28;20057;-86
2022/11/21 06:50:07;;;;;;;27.45;13.93;;;-0.80;99.90;;;;;;4941526;28;20042;-87
2022/11/21 06:52:33;;;;;;;28.98;14.52;;;-0.90;99.90;;;;;;4942532;28;20508;-87
2022/11/21 06:54:59;;;;;;;27.55;14.00;;;-0.90;99.90;;;;;;4950087;28;20043;-87
2022/11/21 06:57:24;;;;;;;25.98;13.77;;;-0.90;99.90;;;;;;4965235;28;20380;-87
2022/11/21 06:59:50;;;;;;;28.48;14.18;;;-1.00;99.90;;;;;;4946922;28;20142;-86
2022/11/21 07:02:15;;;;;;;23.25;12.13;;;-1.00;99.90;;;;;;4942840;28;20031;-86
2022/11/21 07:04:41;;;;;;;28.20;14.77;;;-1.00;99.90;;;;;;4965796;28;20031;-87
2022/11/21 07:07:07;;;;;;;28.10;13.27;;;-0.90;99.90;;;;;;4968506;28;20058;-94
2022/11/21 07:09:34;;;;;;;27.00;12.32;;;-0.80;99.90;;;;;;4953731;28;20038;-94
2022/11/21 07:13:20;;;;;;;30.05;13.95;;;-0.90;99.90;;;;;;4963803;28;20047;-94
2022/11/21 07:14:46;;;;;;;27.73;15.00;;;-0.80;99.90;;;;;;4954327;28;20118;-94
2022/11/21 07:17:12;;;;;;;27.95;13.18;;;-0.90;99.90;;;;;;4932055;28;20443;-93
2022/11/21 07:19:38;;;;;;;28.73;12.77;;;-0.80;99.90;;;;;;4923486;28;20447;-95
2022/11/21 07:22:04;;;;;;;28.48;14.48;;;-0.70;99.90;;;;;;4934294;28;20550;-94
2022/11/21 07:24:30;;;;;;;33.22;14.88;;;-0.60;99.90;;;;;;4938265;28;20403;-92
2022/11/21 07:26:56;;;;;;;28.05;14.15;;;-0.50;99.90;;;;;;4957214;28;20062;-93
2022/11/21 07:29:21;;;;;;;25.80;12.35;;;-0.50;99.90;;;;;;4927053;28;20093;-93
2022/11/21 07:31:47;;;;;;;28.75;14.00;;;-0.50;99.90;;;;;;4925557;28;20057;-91
2022/11/21 07:34:12;;;;;;;33.03;16.10;;;-0.50;99.90;;;;;;4937347;28;20135;-94
2022/11/21 07:36:38;;;;;;;29.60;15.63;;;-0.50;99.90;;;;;;4935261;28;20031;-93
2022/11/21 07:39:05;;;;;;;32.42;15.75;;;-0.50;99.90;;;;;;4936732;28;20567;-94
2022/11/21 07:41:31;;;;;;;31.02;14.55;;;-0.60;99.90;;;;;;4943540;28;20038;-92
2022/11/21 07:43:57;;;;;;;27.38;13.57;;;-0.60;99.90;;;;;;4936016;28;20074;-91
2022/11/21 07:46:22;;;;;;;27.65;12.93;;;-0.60;99.90;;;;;;4950970;28;20043;-92
2022/11/21 07:48:48;;;;;;;26.35;13.32;;;-0.60;99.90;;;;;;4952769;28;20726;-92
2022/11/21 07:51:13;;;;;;;30.08;14.95;;;-0.50;99.90;;;;;;4949758;28;20077;-92
2022/11/21 07:53:39;;;;;;;30.88;15.88;;;-0.50;99.90;;;;;;4945986;28;20066;-90
2022/11/21 07:56:08;;;;;;;27.23;14.45;;;-0.50;99.90;;;;;;4955896;28;20047;-92
2022/11/21 07:58:34;;;;;;;32.75;13.95;;;-0.50;99.90;;;;;;4946537;28;20078;-90
2022/11/21 08:01:04;;;;;;;28.02;15.13;;;-0.50;99.90;;;;;;4973782;28;20041;-93
2022/11/21 08:03:30;;;;;;;28.15;13.40;;;-0.50;99.90;;;;;;4958330;28;20034;-91
2022/11/21 08:05:56;;;;;;;28.98;14.30;;;-0.50;99.90;;;;;;4940399;28;20054;-94
2022/11/21 08:08:21;;;;;;;30.20;14.57;;;-0.50;99.90;;;;;;4934046;28;20368;-91
2022/11/21 08:10:47;;;;;;;31.27;14.55;;;-0.50;99.90;;;;;;4964127;28;20495;-92
2022/11/21 08:13:13;;;;;;;27.33;14.10;;;-0.50;99.90;;;;;;4925626;28;20043;-93
2022/11/21 08:15:39;;;;;;;32.42;14.90;;;-0.50;99.90;;;;;;4943964;28;20031;-93
2022/11/21 08:18:12;;;;;;;32.08;15.45;;;-0.50;99.90;;;;;;4941560;28;20043;-93
2022/11/21 08:20:38;;;;;;;28.17;14.15;;;-0.50;99.90;;;;;;4946918;28;20094;-92
2022/11/21 08:23:04;;;;;;;28.83;13.75;;;-0.50;99.90;;;;;;4943302;28;20138;-93
2022/11/21 08:25:30;;;;;;;26.95;14.43;;;-0.40;99.90;;;;;;4913309;29;20056;-94
2022/11/21 08:27:57;;;;;;;27.45;13.23;;;-0.40;99.90;;;;;;4931268;29;20050;-94
2022/11/21 08:30:22;;;;;;;29.60;12.60;;;-0.40;99.90;;;;;;4912675;29;20480;-95
2022/11/21 08:32:48;;;;;;;27.25;12.95;;;-0.40;99.90;;;;;;4922685;29;20039;-92
2022/11/21 08:35:14;;;;;;;29.83;13.85;;;-0.30;99.90;;;;;;4930370;29;20099;-90
2022/11/21 08:37:39;;;;;;;25.92;13.50;;;-0.30;99.90;;;;;;4919877;29;20103;-93
2022/11/21 08:40:06;;;;;;;31.15;14.88;;;-0.10;99.90;;;;;;4907604;29;20048;-92
2022/11/21 08:42:31;;;;;;;33.83;15.07;;;0.00;99.90;;;;;;4901523;29;20044;-86
2022/11/21 08:44:57;;;;;;;32.05;15.90;;;0.10;99.90;;;;;;4924565;29;20389;-86
2022/11/21 08:47:22;;;;;;;26.85;15.63;;;0.20;99.90;;;;;;4917642;29;20498;-86
2022/11/21 08:49:48;;;;;;;33.42;17.15;;;0.30;99.90;;;;;;4917309;29;20043;-86
2022/11/21 08:52:16;;;;;;;39.13;18.58;;;0.40;99.90;;;;;;4920505;29;20051;-88
2022/11/21 08:54:43;;;;;;;34.22;17.33;;;0.60;99.90;;;;;;4906508;29;20043;-86
2022/11/21 08:57:09;;;;;;;42.55;18.23;;;0.70;99.90;;;;;;4919383;29;20373;-87
2022/11/21 08:59:34;;;;;;;34.05;17.17;;;0.80;99.90;;;;;;4915413;29;20044;-87
2022/11/21 09:02:00;;;;;;;33.63;16.75;;;0.90;99.90;;;;;;4916014;29;21010;-88
2022/11/21 09:04:26;;;;;;;33.13;15.70;;;1.00;99.90;;;;;;4913011;29;20390;-88
2022/11/21 09:06:52;;;;;;;39.30;17.33;;;1.10;99.90;;;;;;4923969;29;20117;-87
2022/11/21 09:09:17;;;;;;;36.50;18.33;;;1.10;99.90;;;;;;4922716;29;20219;-90
2022/11/21 09:11:43;;;;;;;29.60;15.20;;;1.20;99.90;;;;;;4944815;28;20044;-91
2022/11/21 09:19:37;;;;;;;32.35;15.57;;;1.30;99.90;;;;;;4922634;29;20116;-91
2022/11/21 09:22:03;;;;;;;33.75;15.48;;;1.30;99.90;;;;;;4921710;29;20048;-90
2022/11/21 09:24:28;;;;;;;28.98;13.50;;;1.30;99.90;;;;;;4931116;29;20043;-92
2022/11/21 09:26:54;;;;;;;28.42;13.18;;;1.30;99.90;;;;;;4908529;29;20056;-92
2022/11/21 09:29:19;;;;;;;24.60;12.90;;;1.30;99.90;;;;;;4918156;29;20055;-91
2022/11/21 09:31:45;;;;;;;32.03;14.32;;;1.30;99.90;;;;;;4907907;29;20044;-93
2022/11/21 09:34:11;;;;;;;27.05;13.98;;;1.30;99.90;;;;;;4927385;29;20048;-91
2022/11/21 09:36:37;;;;;;;26.83;14.35;;;1.30;99.90;;;;;;4917991;29;20067;-91
2022/11/21 09:39:03;;;;;;;31.65;15.27;;;1.30;99.90;;;;;;4908610;29;20471;-91
2022/11/21 09:41:51;;;;;;;26.05;13.35;;;1.30;99.90;;;;;;4919953;29;20036;-91
2022/11/21 09:44:37;;;;;;;25.23;13.45;;;1.30;99.90;;;;;;4907475;29;20043;-92
2022/11/21 09:47:21;;;;;;;27.13;13.77;;;1.30;99.90;;;;;;4930647;29;20059;-92
2022/11/21 09:50:01;;;;;;;27.27;14.52;;;1.40;99.90;;;;;;4929057;29;20083;-92
2022/11/21 09:52:37;;;;;;;24.90;12.43;;;1.40;99.90;;;;;;4924235;29;20055;-91
2022/11/21 09:55:06;;;;;;;25.45;13.32;;;1.40;99.90;;;;;;4924926;29;20390;-91
2022/11/21 09:57:34;;;;;;;25.17;12.70;;;1.40;99.90;;;;;;4932778;29;20075;-91
2022/11/21 10:00:03;;;;;;;26.65;13.60;;;1.40;99.90;;;;;;4926987;29;20095;-93
2022/11/21 10:02:28;;;;;;;27.95;14.45;;;1.50;99.90;;;;;;4922579;29;20469;-93
2022/11/21 10:04:59;;;;;;;27.77;14.40;;;1.50;99.90;;;;;;4927125;29;20075;-93
2022/11/21 10:07:29;;;;;;;25.45;13.93;;;1.60;99.90;;;;;;4907908;29;20050;-91
2022/11/21 10:10:25;;;;;;;26.50;12.70;;;1.60;99.90;;;;;;4927395;29;20076;-91
2022/11/21 10:13:05;;;;;;;27.23;13.88;;;1.60;99.90;;;;;;4916077;29;20047;-92
2022/11/21 10:15:50;;;;;;;23.90;13.38;;;1.70;99.90;;;;;;4932373;29;20039;-92
2022/11/21 10:18:42;;;;;;;24.08;13.20;;;1.70;99.90;;;;;;4901015;29;20051;-92
2022/11/21 10:21:23;;;;;;;26.77;12.02;;;1.80;99.90;;;;;;4925828;29;20042;-91
2022/11/21 10:24:19;;;;;;;24.52;11.45;;;1.80;99.90;;;;;;4924336;29;20043;-93
2022/11/21 10:27:03;;;;;;;23.77;11.82;;;1.80;99.90;;;;;;4961953;28;20405;-92
2022/11/21 10:29:52;;;;;;;21.95;12.52;;;1.80;99.90;;;;;;4950009;28;20075;-91
2022/11/21 10:32:31;;;;;;;23.38;11.68;;;1.90;99.90;;;;;;4945196;28;20043;-92
2022/11/21 10:35:13;;;;;;;24.90;13.57;;;2.00;99.90;;;;;;4959988;28;20062;-91
2022/11/21 10:37:45;;;;;;;26.58;12.80;;;2.00;99.90;;;;;;4930349;28;20043;-91
2022/11/21 10:40:29;;;;;;;26.73;13.70;;;2.00;99.90;;;;;;4966522;28;20041;-92
2022/11/21 10:46:06;;;;;;;26.20;12.53;;;2.20;99.90;;;;;;4942259;28;20046;-91
2022/11/21 10:48:32;;;;;;;24.58;13.43;;;2.20;99.90;;;;;;4962380;28;20046;-92
2022/11/21 10:51:25;;;;;;;24.65;13.48;;;2.20;99.90;;;;;;4961930;28;20054;-91
2022/11/21 10:56:58;;;;;;;23.65;12.75;;;2.30;99.90;;;;;;4956128;28;20407;-90
2022/11/21 10:59:27;;;;;;;25.85;13.27;;;2.30;99.90;;;;;;4964420;28;20397;-91
2022/11/21 11:01:59;;;;;;;23.20;12.93;;;2.30;99.90;;;;;;4932700;28;20133;-90
2022/11/21 11:04:27;;;;;;;27.48;14.57;;;2.30;99.90;;;;;;4936777;29;20067;-92
2022/11/21 11:06:52;;;;;;;26.02;13.25;;;2.40;99.90;;;;;;4973860;28;20447;-92
2022/11/21 11:09:22;;;;;;;29.15;12.88;;;2.40;99.90;;;;;;4927061;28;20051;-92
2022/11/21 11:11:47;;;;;;;24.17;12.63;;;2.40;99.90;;;;;;4966080;28;20133;-91
2022/11/21 11:14:14;;;;;;;24.17;12.43;;;2.50;99.90;;;;;;4946962;28;20460;-91
2022/11/21 11:16:45;;;;;;;23.63;12.13;;;2.60;99.90;;;;;;4946869;28;20192;-90
2022/11/21 11:19:14;;;;;;;23.33;12.40;;;2.70;99.90;;;;;;4943139;28;20133;-92
2022/11/21 11:21:39;;;;;;;23.85;12.50;;;2.70;99.90;;;;;;4932851;28;20073;-91
2022/11/21 11:24:26;;;;;;;23.15;12.25;;;2.80;99.90;;;;;;4923533;28;20039;-92
2022/11/21 11:27:01;;;;;;;24.45;13.43;;;2.80;99.90;;;;;;4950858;28;20054;-90
2022/11/21 11:29:49;;;;;;;25.50;12.82;;;2.90;99.90;;;;;;4962797;28;20050;-94
2022/11/21 11:32:19;;;;;;;26.45;14.55;;;2.90;99.90;;;;;;4948916;28;20046;-93
2022/11/21 11:35:20;;;;;;;26.08;13.18;;;2.90;99.90;;;;;;4926450;28;20047;-91
2022/11/21 11:38:03;;;;;;;28.40;14.18;;;3.00;99.90;;;;;;4945166;28;20110;-90
2022/11/21 11:40:34;;;;;;;27.33;13.18;;;3.10;99.90;;;;;;4967193;28;20039;-89
2022/11/21 11:50:09;;;;;;;27.23;14.50;;;3.30;99.90;;;;;;4964542;28;20059;-90
2022/11/21 11:52:22;;;;;;;31.15;15.75;;;3.30;99.90;;;;;;4947725;28;20046;-89
2022/11/21 11:54:54;;;;;;;25.15;14.27;;;3.50;99.90;;;;;;4965611;28;20372;-90
2022/11/21 11:57:20;;;;;;;25.02;13.18;;;3.50;99.90;;;;;;4968120;28;20047;-93
2022/11/21 11:59:52;;;;;;;27.92;14.45;;;3.60;99.90;;;;;;4934089;28;20088;-90
2022/11/21 12:02:28;;;;;;;28.00;14.52;;;3.60;99.90;;;;;;4957771;28;20114;-92
2022/11/21 12:05:06;;;;;;;29.77;15.85;;;3.70;99.90;;;;;;4937939;29;20441;-91
2022/11/21 12:07:38;;;;;;;28.52;14.93;;;3.70;99.90;;;;;;4918368;28;20039;-91
2022/11/21 12:10:29;;;;;;;28.35;15.10;;;3.70;99.90;;;;;;4965230;28;20054;-91
2022/11/21 12:13:04;;;;;;;27.92;15.35;;;3.80;99.90;;;;;;4943597;28;20039;-89
2022/11/21 12:15:47;;;;;;;26.08;14.38;;;3.80;99.90;;;;;;4940777;28;20055;-91
2022/11/21 12:18:19;;;;;;;29.13;15.80;;;3.80;99.90;;;;;;4924001;28;20043;-90
2022/11/21 12:21:07;;;;;;;26.00;15.13;;;3.90;99.90;;;;;;4926085;28;20097;-89
2022/11/21 12:23:40;;;;;;;25.92;13.95;;;3.90;99.90;;;;;;4929735;28;20039;-88
2022/11/21 12:26:48;;;;;;;26.33;13.68;;;3.90;99.90;;;;;;4930320;28;20065;-89
2022/11/21 12:29:34;;;;;;;28.63;15.02;;;4.00;99.90;;;;;;4924602;28;20051;-91
2022/11/21 12:32:32;;;;;;;24.98;14.38;;;4.00;99.90;;;;;;4923564;29;20138;-91
2022/11/21 12:35:13;;;;;;;27.25;13.57;;;4.00;99.90;;;;;;4927906;28;20041;-90
2022/11/21 12:38:17;;;;;;;24.65;13.13;;;4.10;99.90;;;;;;4948304;28;20106;-91
2022/11/21 12:44:19;;;;;;;26.17;14.02;;;4.10;99.90;;;;;;4954843;28;20055;-91
2022/11/21 12:47:05;;;;;;;24.67;14.02;;;4.20;99.90;;;;;;4920937;28;20038;-91
2022/11/21 12:55:35;;;;;;;26.20;14.48;;;4.10;99.90;;;;;;4936804;29;20051;-93
2022/11/21 12:58:23;;;;;;;26.95;14.60;;;4.10;99.90;;;;;;4927194;29;20063;-91
2022/11/21 13:01:15;;;;;;;25.08;14.07;;;4.10;99.90;;;;;;4931366;29;20158;-92
2022/11/21 13:03:53;;;;;;;26.67;15.30;;;4.10;99.90;;;;;;4944613;29;20055;-90
2022/11/21 13:06:35;;;;;;;24.02;13.63;;;4.10;99.90;;;;;;4947086;28;20413;-92
2022/11/21 13:09:04;;;;;;;26.65;14.02;;;4.10;99.90;;;;;;4929095;29;20110;-91
2022/11/21 13:11:58;;;;;;;27.95;15.23;;;4.20;99.90;;;;;;4932780;29;20043;-90
2022/11/21 13:14:47;;;;;;;26.90;15.57;;;4.20;99.90;;;;;;4930950;29;20138;-90